createdAt,value
2023-03-08T00:01:22.708Z,91.70
2023-03-08T00:03:56.869Z,92.52
2023-03-08T00:06:24.740Z,92.60
2023-03-08T00:08:55.171Z,91.54
2023-03-08T00:11:21.560Z,91.42
2023-03-08T00:13:47.971Z,92.15
2023-03-08T00:16:14.485Z,91.78
2023-03-08T00:18:41.745Z,90.84
2023-03-08T00:21:11.023Z,91.66
2023-03-08T00:23:37.677Z,91.83
2023-03-08T00:26:04.464Z,92.00
2023-03-08T00:28:31.629Z,91.70
2023-03-08T00:31:04.380Z,91.77
2023-03-08T00:33:32.986Z,91.79
2023-03-08T00:36:07.258Z,90.87
2023-03-08T00:38:35.648Z,91.67
2023-03-08T00:41:03.209Z,90.75
2023-03-08T00:43:29.888Z,91.17
2023-03-08T00:45:56.996Z,91.43
2023-03-08T00:48:23.584Z,91.37
2023-03-08T00:50:50.293Z,90.67
2023-03-08T00:53:16.920Z,90.43
2023-03-08T00:55:54.442Z,90.37
2023-03-08T00:58:21.739Z,91.21
2023-03-08T01:00:48.635Z,90.69
2023-03-08T01:03:15.943Z,91.18
2023-03-08T01:05:44.793Z,91.22
2023-03-08T01:08:12.587Z,90.03
2023-03-08T01:10:39.270Z,90.67
2023-03-08T01:13:07.750Z,90.76
2023-03-08T01:15:38.087Z,90.41
2023-03-08T01:18:05.995Z,91.31
2023-03-08T01:20:33.169Z,91.57
2023-03-08T01:22:59.685Z,91.32
2023-03-08T01:25:26.462Z,91.83
2023-03-08T01:27:52.927Z,91.48
2023-03-08T01:30:19.364Z,90.86
2023-03-08T01:32:45.849Z,90.75
2023-03-08T01:35:12.451Z,91.30
2023-03-08T01:37:38.848Z,91.12
2023-03-08T01:40:06.391Z,90.80
2023-03-08T01:42:33.440Z,91.16
2023-03-08T01:45:41.208Z,90.66
2023-03-08T01:48:07.675Z,91.52
2023-03-08T01:50:34.079Z,91.14
2023-03-08T01:53:00.520Z,91.66
2023-03-08T01:55:27.047Z,90.98
2023-03-08T01:57:55.301Z,91.33
2023-03-08T02:00:23.878Z,91.03
2023-03-08T02:02:56.584Z,92.00
2023-03-08T02:05:23.859Z,91.97
2023-03-08T02:07:50.333Z,91.92
2023-03-08T02:10:17.990Z,91.80
2023-03-08T02:12:45.498Z,91.36
2023-03-08T02:15:14.397Z,90.77
2023-03-08T02:17:42.956Z,91.71
2023-03-08T02:20:35.521Z,90.90
2023-03-08T02:23:15.886Z,91.98
2023-03-08T02:25:53.962Z,91.04
2023-03-08T02:28:22.445Z,91.97
2023-03-08T02:30:49.958Z,90.84
2023-03-08T02:33:17.310Z,91.27
2023-03-08T02:35:44.286Z,91.75
2023-03-08T02:38:13.698Z,92.35
2023-03-08T02:40:40.894Z,91.70
2023-03-08T02:43:07.628Z,91.96
2023-03-08T02:45:34.636Z,91.29
2023-03-08T02:48:02.811Z,92.17
2023-03-08T02:50:29.501Z,91.70
2023-03-08T02:52:55.903Z,92.00
2023-03-08T02:55:22.257Z,91.35
2023-03-08T02:57:48.789Z,91.09
2023-03-08T03:00:15.590Z,92.37
2023-03-08T03:02:41.952Z,91.82
2023-03-08T03:05:12.667Z,92.43
2023-03-08T03:07:41.375Z,91.85
2023-03-08T03:10:12.698Z,92.14
2023-03-08T03:12:40.282Z,93.15
2023-03-08T03:15:09.116Z,92.83
2023-03-08T03:17:36.911Z,92.07
2023-03-08T03:20:06.657Z,92.16
2023-03-08T03:22:33.243Z,91.70
2023-03-08T03:24:59.697Z,91.59
2023-03-08T03:27:26.087Z,92.49
2023-03-08T03:29:52.609Z,91.34
2023-03-08T03:32:19.068Z,91.37
2023-03-08T03:34:45.507Z,90.72
2023-03-08T03:37:11.900Z,92.10
2023-03-08T03:39:39.237Z,92.02
2023-03-08T03:42:07.192Z,93.04
2023-03-08T03:44:33.669Z,92.61
2023-03-08T03:47:00.426Z,93.06
2023-03-08T03:49:26.980Z,93.76
2023-03-08T03:51:53.422Z,93.76
2023-03-08T03:54:19.895Z,93.89
2023-03-08T03:56:46.400Z,94.30
2023-03-08T03:59:12.865Z,94.87
2023-03-08T04:01:39.431Z,94.19
2023-03-08T04:04:06.142Z,94.55
2023-03-08T04:06:34.132Z,95.08
2023-03-08T04:09:07.137Z,95.54
2023-03-08T04:11:37.031Z,95.94
2023-03-08T04:14:04.450Z,96.02
2023-03-08T04:16:33.662Z,96.28
2023-03-08T04:19:02.357Z,96.12
2023-03-08T04:21:29.770Z,96.82
2023-03-08T04:23:58.356Z,95.86
2023-03-08T04:26:26.636Z,96.41
2023-03-08T04:28:53.064Z,96.93
2023-03-08T04:31:22.632Z,96.52
2023-03-08T04:33:49.831Z,97.55
2023-03-08T04:36:17.583Z,96.34
2023-03-08T04:38:45.620Z,96.72
2023-03-08T04:41:12.552Z,97.96
2023-03-08T04:43:45.417Z,98.03
2023-03-08T04:46:12.452Z,97.02
2023-03-08T04:48:39.245Z,97.00
2023-03-08T04:51:07.386Z,97.44
2023-03-08T04:53:35.819Z,97.68
2023-03-08T04:56:02.849Z,97.64
2023-03-08T04:58:31.515Z,97.64
2023-03-08T05:00:58.255Z,97.50
2023-03-08T05:03:24.756Z,96.82
2023-03-08T05:05:54.181Z,98.07
2023-03-08T05:08:21.700Z,97.06
2023-03-08T05:11:00.959Z,96.99
2023-03-08T05:13:30.086Z,96.89
2023-03-08T05:15:57.144Z,96.83
2023-03-08T05:18:23.604Z,95.69
2023-03-08T05:21:14.166Z,96.85
2023-03-08T05:23:40.898Z,96.89
2023-03-08T05:26:08.741Z,96.30
2023-03-08T05:28:37.157Z,95.21
2023-03-08T05:31:09.176Z,96.25
2023-03-08T05:33:36.616Z,95.96
2023-03-08T05:36:03.804Z,96.63
2023-03-08T05:38:30.925Z,96.37
2023-03-08T05:41:05.815Z,96.13
2023-03-08T05:43:32.294Z,97.40
2023-03-08T05:46:19.448Z,97.63
2023-03-08T05:48:46.569Z,96.64
2023-03-08T05:51:17.755Z,98.30
2023-03-08T05:53:44.557Z,98.14
2023-03-08T05:56:16.057Z,96.92
2023-03-08T05:58:44.036Z,96.99
2023-03-08T06:01:20.118Z,98.19
2023-03-08T06:03:48.553Z,97.86
2023-03-08T06:06:16.321Z,97.56
2023-03-08T06:08:43.086Z,97.46
2023-03-08T06:11:10.402Z,97.82
2023-03-08T06:13:36.896Z,97.72
2023-03-08T06:16:04.176Z,97.34
2023-03-08T06:18:30.968Z,98.54
2023-03-08T06:21:05.955Z,98.27
2023-03-08T06:23:33.953Z,97.54
2023-03-08T06:26:01.187Z,98.89
2023-03-08T06:28:29.195Z,98.32
2023-03-08T06:30:55.766Z,98.19
2023-03-08T06:33:24.858Z,98.24
2023-03-08T06:35:58.329Z,98.93
2023-03-08T06:38:27.503Z,98.04
2023-03-08T06:40:55.733Z,98.02
2023-03-08T06:43:22.448Z,98.50
2023-03-08T06:45:48.919Z,97.79
2023-03-08T06:48:15.650Z,98.64
2023-03-08T06:50:42.116Z,98.72
2023-03-08T06:53:09.422Z,97.45
2023-03-08T06:55:37.471Z,98.35
2023-03-08T06:58:04.606Z,97.69
2023-03-08T07:00:31.585Z,98.71
2023-03-08T07:02:58.069Z,99.14
2023-03-08T07:05:24.883Z,98.24
2023-03-08T07:07:51.378Z,98.18
2023-03-08T07:10:20.296Z,98.71
2023-03-08T07:12:49.235Z,98.30
2023-03-08T07:15:19.041Z,98.29
2023-03-08T07:17:47.208Z,98.38
2023-03-08T07:20:16.579Z,98.15
2023-03-08T07:22:44.701Z,97.38
2023-03-08T07:25:12.912Z,97.63
2023-03-08T07:27:39.781Z,97.69
2023-03-08T07:30:09.676Z,97.58
2023-03-08T07:32:37.121Z,97.36
2023-03-08T07:35:03.912Z,97.66
2023-03-08T07:37:30.328Z,97.50
2023-03-08T07:39:56.797Z,98.49
2023-03-08T07:42:23.298Z,98.36
2023-03-08T07:44:49.759Z,98.05
2023-03-08T07:47:16.248Z,97.88
2023-03-08T07:49:42.785Z,98.34
2023-03-08T07:52:09.211Z,98.23
2023-03-08T07:54:35.623Z,98.04
2023-03-08T07:57:02.997Z,98.10
2023-03-08T07:59:29.742Z,98.43
2023-03-08T08:01:56.129Z,99.13
2023-03-08T08:04:23.317Z,98.80
2023-03-08T08:06:50.135Z,98.65
2023-03-08T08:09:17.907Z,98.44
2023-03-08T08:11:44.422Z,98.64
2023-03-08T08:14:10.860Z,99.33
2023-03-08T08:16:37.345Z,99.62
2023-03-08T08:19:03.886Z,98.77
2023-03-08T08:21:30.329Z,98.30
2023-03-08T08:23:57.895Z,98.82
2023-03-08T08:26:24.328Z,98.94
2023-03-08T08:28:53.225Z,98.59
2023-03-08T08:31:23.392Z,98.37
2023-03-08T08:33:50.035Z,98.39
2023-03-08T08:36:19.154Z,98.84
2023-03-08T08:38:46.224Z,99.44
2023-03-08T08:41:17.905Z,98.94
2023-03-08T08:43:46.141Z,99.68
2023-03-08T08:46:14.208Z,99.38
2023-03-08T08:48:41.138Z,98.98
2023-03-08T08:51:11.161Z,99.26
2023-03-08T08:53:37.755Z,99.16
2023-03-08T08:56:26.256Z,98.69
2023-03-08T08:58:53.580Z,99.17
2023-03-08T09:01:28.436Z,97.98
2023-03-08T09:03:55.741Z,98.07
2023-03-08T09:06:23.944Z,98.93
2023-03-08T09:08:55.349Z,98.43
2023-03-08T09:11:22.922Z,98.31
2023-03-08T09:13:49.604Z,97.54
2023-03-08T09:16:20.449Z,97.91
2023-03-08T09:18:47.116Z,98.65
2023-03-08T09:21:14.278Z,98.33
2023-03-08T09:23:41.149Z,97.53
2023-03-08T09:26:07.667Z,98.11
2023-03-08T09:28:34.190Z,97.37
2023-03-08T09:31:02.421Z,97.74
2023-03-08T09:33:28.833Z,97.69
2023-03-08T09:35:59.298Z,98.02
2023-03-08T09:38:26.139Z,97.69
2023-03-08T09:41:09.155Z,97.43
2023-03-08T09:44:04.804Z,97.72
2023-03-08T09:46:36.093Z,97.12
2023-03-08T09:49:06.084Z,97.84
2023-03-08T09:51:41.488Z,97.70
2023-03-08T09:54:13.838Z,97.21
2023-03-08T09:56:48.640Z,97.79
2023-03-08T09:59:33.508Z,97.58
2023-03-08T10:02:13.998Z,96.97
2023-03-08T10:05:09.902Z,96.42
2023-03-08T10:08:18.298Z,96.21
2023-03-08T10:11:07.526Z,95.67
2023-03-08T10:13:41.161Z,96.61
2023-03-08T10:16:26.234Z,95.00
2023-03-08T10:18:59.081Z,94.92
2023-03-08T10:21:27.924Z,94.24
2023-03-08T10:24:11.867Z,94.47
2023-03-08T10:26:38.326Z,94.07
2023-03-08T10:29:04.788Z,94.17
2023-03-08T10:31:35.540Z,93.25
2023-03-08T10:34:25.525Z,93.23
2023-03-08T10:37:04.032Z,92.21
2023-03-08T10:39:30.865Z,93.06
2023-03-08T10:42:00.346Z,91.61
2023-03-08T10:44:52.972Z,93.59
2023-03-08T10:47:28.652Z,92.65
2023-03-08T10:50:05.343Z,93.92
2023-03-08T10:52:31.753Z,93.29
2023-03-08T10:55:03.138Z,93.21
2023-03-08T10:57:30.662Z,91.23
2023-03-08T11:00:18.762Z,90.67
2023-03-08T11:02:46.771Z,91.40
2023-03-08T11:05:22.301Z,89.71
2023-03-08T11:08:00.243Z,90.44
2023-03-08T11:10:29.120Z,90.07
2023-03-08T11:13:23.553Z,90.41
2023-03-08T11:16:04.152Z,88.93
2023-03-08T11:18:59.092Z,89.46
2023-03-08T11:22:02.222Z,87.77
2023-03-08T11:24:39.711Z,88.64
2023-03-08T11:27:16.463Z,88.36
2023-03-08T11:29:57.044Z,88.40
2023-03-08T11:32:43.898Z,88.25
2023-03-08T11:35:25.300Z,87.84
2023-03-08T11:38:10.583Z,88.30
2023-03-08T11:40:45.879Z,88.72
2023-03-08T11:43:28.449Z,89.41
2023-03-08T11:46:13.638Z,87.63
2023-03-08T11:49:11.253Z,87.01
2023-03-08T11:52:07.627Z,87.94
2023-03-08T11:54:53.323Z,87.43
2023-03-08T11:57:20.549Z,87.67
2023-03-08T12:00:00.838Z,87.13
2023-03-08T12:02:30.786Z,87.44
2023-03-08T12:05:03.894Z,85.80
2023-03-08T12:07:38.609Z,85.52
2023-03-08T12:10:05.247Z,86.85
2023-03-08T12:12:39.365Z,86.61
2023-03-08T12:15:20.693Z,87.02
2023-03-08T12:17:53.911Z,86.54
2023-03-08T12:20:22.264Z,86.75
2023-03-08T12:22:54.889Z,87.00
2023-03-08T12:25:29.458Z,85.74
2023-03-08T12:28:04.719Z,84.68
2023-03-08T12:31:21.404Z,86.24
2023-03-08T12:33:53.254Z,85.71
2023-03-08T12:36:22.563Z,84.34
2023-03-08T12:38:56.573Z,84.38
2023-03-08T12:41:27.543Z,83.31
2023-03-08T12:44:26.742Z,83.84
2023-03-08T12:47:04.177Z,83.54
2023-03-08T12:49:41.600Z,84.16
2023-03-08T12:52:20.334Z,83.53
2023-03-08T12:55:00.441Z,84.96
2023-03-08T12:57:38.022Z,85.70
2023-03-08T13:00:25.252Z,85.13
2023-03-08T13:03:04.568Z,83.49
2023-03-08T13:05:35.052Z,85.72
2023-03-08T13:08:13.662Z,83.95
2023-03-08T13:10:40.060Z,84.59
2023-03-08T13:13:09.549Z,85.12
2023-03-08T13:15:37.934Z,85.34
2023-03-08T13:18:16.000Z,84.00
2023-03-08T13:21:02.131Z,83.77
2023-03-08T13:23:36.484Z,83.96
2023-03-08T13:26:09.021Z,82.97
2023-03-08T13:28:47.111Z,84.21
2023-03-08T13:31:19.401Z,84.34
2023-03-08T13:33:49.775Z,83.66
2023-03-08T13:36:31.149Z,83.60
2023-03-08T13:39:18.251Z,83.13
2023-03-08T13:41:46.694Z,83.26
2023-03-08T13:44:24.353Z,84.32
2023-03-08T13:46:54.824Z,83.62
2023-03-08T13:49:34.831Z,83.93
2023-03-08T13:52:03.739Z,83.44
2023-03-08T13:54:37.261Z,83.81
2023-03-08T13:57:07.093Z,83.78
2023-03-08T13:59:35.657Z,84.58
2023-03-08T14:02:02.057Z,84.96
2023-03-08T14:04:30.416Z,84.38
2023-03-08T14:07:00.047Z,84.87
2023-03-08T14:09:27.601Z,85.27
2023-03-08T14:12:06.775Z,86.01
2023-03-08T14:14:37.650Z,85.79
2023-03-08T14:17:05.027Z,85.68
2023-03-08T14:19:35.620Z,86.31
2023-03-08T14:22:14.248Z,86.80
2023-03-08T14:24:43.541Z,87.04
2023-03-08T14:27:15.881Z,87.42
2023-03-08T14:29:44.402Z,88.50
2023-03-08T14:32:10.986Z,88.38
2023-03-08T14:34:41.638Z,88.86
2023-03-08T14:37:22.826Z,88.43
2023-03-08T14:39:52.537Z,88.89
2023-03-08T14:42:24.280Z,89.35
2023-03-08T14:44:57.989Z,88.89
2023-03-08T14:47:32.011Z,89.69
2023-03-08T14:50:07.400Z,89.94
2023-03-08T14:52:46.184Z,89.35
2023-03-08T14:55:24.778Z,90.37
2023-03-08T14:57:53.855Z,89.93
2023-03-08T15:00:21.227Z,89.96
2023-03-08T15:02:48.210Z,90.78
2023-03-08T15:05:28.806Z,91.19
2023-03-08T15:07:57.593Z,91.14
2023-03-08T15:10:33.670Z,90.51
2023-03-08T15:13:00.406Z,91.02
2023-03-08T15:15:26.986Z,89.44
2023-03-08T15:17:53.419Z,89.40
2023-03-08T15:20:20.396Z,90.45
2023-03-08T15:22:51.949Z,88.98
2023-03-08T15:25:25.149Z,87.90
2023-03-08T15:27:51.774Z,89.01
2023-03-08T15:30:24.465Z,87.77
2023-03-08T15:32:50.995Z,88.01
2023-03-08T15:35:18.403Z,87.62
2023-03-08T15:37:45.730Z,87.62
2023-03-08T15:40:22.800Z,86.57
2023-03-08T15:42:49.167Z,87.64
2023-03-08T15:45:15.975Z,87.68
2023-03-08T15:47:42.621Z,87.68
2023-03-08T15:50:18.219Z,88.04
2023-03-08T15:52:45.453Z,87.32
2023-03-08T15:55:14.141Z,87.23
2023-03-08T15:57:41.377Z,88.33
2023-03-08T16:00:11.476Z,87.98
2023-03-08T16:02:39.183Z,88.56
2023-03-08T16:05:07.721Z,87.73
2023-03-08T16:07:34.676Z,88.49
2023-03-08T16:10:01.484Z,87.94
2023-03-08T16:12:27.966Z,88.08
2023-03-08T16:14:58.093Z,89.28
2023-03-08T16:17:25.986Z,89.05
2023-03-08T16:19:52.864Z,87.60
2023-03-08T16:22:19.932Z,89.12
2023-03-08T16:24:46.355Z,89.34
2023-03-08T16:27:12.932Z,88.06
2023-03-08T16:29:39.450Z,88.76
2023-03-08T16:32:06.214Z,88.28
2023-03-08T16:34:33.143Z,89.05
2023-03-08T16:37:00.628Z,89.05
2023-03-08T16:39:27.131Z,89.20
2023-03-08T16:41:53.575Z,89.56
2023-03-08T16:44:28.493Z,89.72
2023-03-08T16:46:56.390Z,89.82
2023-03-08T16:49:28.171Z,90.71
2023-03-08T16:51:55.592Z,90.10
2023-03-08T16:54:22.155Z,90.42
2023-03-08T16:56:48.744Z,91.09
2023-03-08T16:59:16.281Z,90.29
2023-03-08T17:01:43.519Z,90.20
2023-03-08T17:04:11.201Z,90.72
2023-03-08T17:06:38.702Z,90.73
2023-03-08T17:09:06.152Z,89.97
2023-03-08T17:11:34.542Z,90.80
2023-03-08T17:14:11.517Z,91.52
2023-03-08T17:16:39.724Z,91.54
2023-03-08T17:19:08.246Z,91.88
2023-03-08T17:21:38.791Z,91.61
2023-03-08T17:24:07.699Z,92.27
2023-03-08T17:26:40.147Z,91.36
2023-03-08T17:29:06.679Z,92.00
2023-03-08T17:31:33.106Z,92.19
2023-03-08T17:33:59.514Z,92.23
2023-03-08T17:36:26.656Z,92.42
2023-03-08T17:38:55.391Z,93.02
2023-03-08T17:41:22.979Z,92.49
2023-03-08T17:43:49.721Z,92.29
2023-03-08T17:46:22.412Z,92.74
2023-03-08T17:48:50.495Z,93.40
2023-03-08T17:51:23.274Z,92.52
2023-03-08T17:53:49.877Z,92.89
2023-03-08T17:56:19.934Z,93.16
2023-03-08T17:58:46.641Z,93.02
2023-03-08T18:01:16.501Z,92.78
2023-03-08T18:03:44.031Z,93.16
2023-03-08T18:06:42.210Z,93.13
2023-03-08T18:09:11.486Z,93.23
2023-03-08T18:11:38.127Z,93.86
2023-03-08T18:14:05.684Z,93.59
2023-03-08T18:16:33.415Z,93.68
2023-03-08T18:19:00.786Z,93.52
2023-03-08T18:21:29.773Z,93.79
2023-03-08T18:23:56.424Z,93.63
2023-03-08T18:26:23.441Z,94.29
2023-03-08T18:28:50.218Z,94.23
2023-03-08T18:31:20.532Z,94.60
2023-03-08T18:33:47.117Z,93.96
2023-03-08T18:36:13.610Z,94.48
2023-03-08T18:38:40.115Z,93.97
2023-03-08T18:41:27.630Z,95.34
2023-03-08T18:43:55.003Z,94.55
2023-03-08T18:46:28.524Z,94.35
2023-03-08T18:49:05.159Z,93.52
2023-03-08T18:51:32.983Z,94.30
2023-03-08T18:54:00.335Z,93.87
2023-03-08T18:56:27.808Z,94.22
2023-03-08T18:58:55.488Z,94.33
2023-03-08T19:01:22.113Z,94.65
2023-03-08T19:03:48.780Z,94.30
2023-03-08T19:06:15.283Z,93.57
2023-03-08T19:08:42.419Z,94.14
2023-03-08T19:11:14.761Z,94.27
2023-03-08T19:13:41.996Z,94.77
2023-03-08T19:16:23.743Z,94.14
2023-03-08T19:18:54.898Z,93.93
2023-03-08T19:21:24.715Z,93.74
2023-03-08T19:23:51.731Z,93.25
2023-03-08T19:26:33.992Z,93.84
2023-03-08T19:29:00.923Z,93.76
2023-03-08T19:31:28.238Z,92.67
2023-03-08T19:33:54.904Z,93.52
2023-03-08T19:36:21.907Z,93.63
2023-03-08T19:38:48.604Z,93.23
2023-03-08T19:41:16.091Z,93.76
2023-03-08T19:43:43.102Z,93.02
2023-03-08T19:46:09.711Z,93.39
2023-03-08T19:48:37.066Z,92.79
2023-03-08T19:51:03.628Z,92.57
2023-03-08T19:53:30.079Z,93.11
2023-03-08T19:55:56.518Z,93.00
2023-03-08T19:58:23.462Z,92.87
2023-03-08T20:00:50.004Z,92.81
2023-03-08T20:03:17.182Z,92.60
2023-03-08T20:05:46.986Z,93.59
2023-03-08T20:08:14.295Z,93.00
2023-03-08T20:10:41.085Z,93.47
2023-03-08T20:13:07.506Z,93.10
2023-03-08T20:15:33.992Z,93.00
2023-03-08T20:18:00.525Z,92.96
2023-03-08T20:20:27.071Z,93.12
2023-03-08T20:22:53.633Z,93.07
2023-03-08T20:25:20.083Z,92.70
2023-03-08T20:27:46.523Z,92.70
2023-03-08T20:30:13.222Z,92.36
2023-03-08T20:32:39.802Z,94.00
2023-03-08T20:35:07.054Z,92.81
2023-03-08T20:37:33.627Z,93.79
2023-03-08T20:40:01.285Z,93.73
2023-03-08T20:42:27.737Z,93.64
2023-03-08T20:44:54.160Z,92.87
2023-03-08T20:47:20.551Z,95.06
2023-03-08T20:49:47.024Z,93.82
2023-03-08T20:52:13.560Z,93.57
2023-03-08T20:54:39.949Z,92.80
2023-03-08T20:57:06.372Z,96.27
2023-03-08T20:59:33.118Z,95.98
2023-03-08T21:01:59.771Z,94.05
2023-03-08T21:04:26.333Z,92.77
2023-03-08T21:06:53.281Z,92.73
2023-03-08T21:09:20.059Z,92.44
2023-03-08T21:11:46.545Z,91.96
2023-03-08T21:14:12.961Z,92.29
2023-03-08T21:16:39.382Z,93.17
2023-03-08T21:19:06.161Z,92.07
2023-03-08T21:21:34.356Z,93.37
2023-03-08T21:24:22.843Z,93.39
2023-03-08T21:26:50.037Z,93.27
2023-03-08T21:29:19.538Z,93.95
2023-03-08T21:31:48.907Z,93.84
2023-03-08T21:34:16.240Z,93.34
2023-03-08T21:36:43.199Z,94.46
2023-03-08T21:39:11.710Z,94.42
2023-03-08T21:41:41.242Z,93.99
2023-03-08T21:44:12.349Z,94.12
2023-03-08T21:46:39.819Z,93.86
2023-03-08T21:49:07.878Z,94.09
2023-03-08T21:51:34.713Z,94.44
2023-03-08T21:54:01.171Z,94.63
2023-03-08T21:56:27.642Z,94.66
2023-03-08T21:58:55.015Z,95.01
2023-03-08T22:01:29.783Z,94.99
2023-03-08T22:03:57.013Z,95.18
2023-03-08T22:06:24.233Z,95.63
2023-03-08T22:08:50.818Z,95.44
2023-03-08T22:11:18.793Z,96.17
2023-03-08T22:13:53.642Z,96.07
2023-03-08T22:16:21.133Z,95.97
2023-03-08T22:18:47.670Z,95.80
2023-03-08T22:21:14.127Z,96.30
2023-03-08T22:23:40.627Z,95.79
2023-03-08T22:26:08.935Z,95.76
2023-03-08T22:28:36.464Z,95.08
2023-03-08T22:31:09.461Z,96.04
2023-03-08T22:33:36.020Z,95.99
2023-03-08T22:36:05.811Z,95.62
2023-03-08T22:38:32.973Z,95.81
2023-03-08T22:40:59.486Z,96.02
2023-03-08T22:43:26.813Z,95.84
2023-03-08T22:45:53.496Z,96.21
2023-03-08T22:48:19.881Z,95.89
2023-03-08T22:50:46.330Z,95.67
2023-03-08T22:53:12.750Z,96.05
2023-03-08T22:55:46.800Z,94.48
2023-03-08T22:58:13.216Z,95.02
2023-03-08T23:00:39.623Z,95.29
2023-03-08T23:03:06.062Z,95.01
2023-03-08T23:05:32.519Z,94.43
2023-03-08T23:07:58.891Z,94.39
2023-03-08T23:10:25.345Z,94.97
2023-03-08T23:12:51.798Z,94.62
2023-03-08T23:15:18.436Z,95.37
2023-03-08T23:17:44.814Z,95.35
2023-03-08T23:20:12.026Z,94.78
2023-03-08T23:22:38.452Z,95.55
2023-03-08T23:25:05.551Z,94.60
2023-03-08T23:27:33.215Z,95.24
2023-03-08T23:29:59.597Z,94.98
2023-03-08T23:32:25.978Z,95.51
2023-03-08T23:34:52.420Z,95.05
2023-03-08T23:37:18.821Z,95.22
2023-03-08T23:39:45.218Z,94.92
2023-03-08T23:42:11.851Z,94.92
2023-03-08T23:44:38.481Z,95.81
2023-03-08T23:47:05.128Z,95.42
2023-03-08T23:49:31.547Z,95.07
2023-03-08T23:51:58.012Z,96.36
2023-03-08T23:54:24.421Z,95.46
2023-03-08T23:56:50.832Z,95.92
2023-03-08T23:59:20.395Z,95.87
